Potash Bay, Vermont
Current Conditions -  °F | °C
As of 11:15 AM on Wednesday 28 Jan 2015 (Local Time) from K6B0 Reporting Station
Clear Clear  
Wind Chill: -2°   Ceiling: Unl
Heat Index: 13°   Visibility: 10mi
Dew Point: -5°   Wind: 13mph
Humidity: 44%   Direction: 350°N
Pressure: 30.12"   Gusts: 16mph
Location:  44.0804°N, 73.3324°W
Report Text: K6B0 281615Z AUTO 35011G14KT 10SM CLR M11/M21 A3012 RMK AO2 T11071208
Loading
Personal Weather Stations






























Interactive Weather Map New forecast layout! Learn more

10-Day Weather Forecast

Advertisements
Track Severe Weather on mobile